Time;durP1;ratioP1;P1;durP2;ratioP2;P2;SDS_P1;SDS_P2;PMS_P1;PMS_P2;Temp;Humidity;BMP_temperature;BMP_pressure;BME280_temperature;BME280_humidity;BME280_pressure;Samples;Min_cycle;Max_cycle;Signal;HPM_P1;HPM_P2
2023/07/19 05:41:46;;;;;;;;;;;;;;;;;;6255912;22;20446;-90
2023/07/19 05:44:12;;;;;;;;;;;;;;;;;;6334077;22;19903;-89
2023/07/19 05:46:37;;;;;;;;;;;;;;;;;;6334597;22;19914;-88
2023/07/19 05:49:03;;;;;;;;;;;;;;;;;;6334008;22;19921;-91
2023/07/19 05:51:28;;;;;;;;;;;;;;;;;;6295212;22;19961;-88
2023/07/19 05:53:54;;;;;;;;;;;;;;;;;;6332076;22;19906;-90
2023/07/19 05:56:19;;;;;;;;;;;;;;;;;;6306490;22;19954;-91
2023/07/19 05:58:45;;;;;;;;;;;;;;;;;;6332736;22;19946;-90
2023/07/19 06:01:14;;;;;;;;;;;;;;;;;;6288057;22;20335;-89
2023/07/19 06:03:40;;;;;;;;;;;;;;;;;;6285726;22;20354;-88
2023/07/19 06:06:05;;;;;;;;;;;;;;;;;;6284486;22;19921;-88
2023/07/19 09:28:24;;;;;;;;;;;;;;;;;;6271944;22;19915;-87
2023/07/19 09:30:58;;;;;;;;;;;;;;;;;;6251078;22;19916;-88
2023/07/19 09:33:27;;;;;;;;;;;;;;;;;;6251359;22;19913;-87
2023/07/19 09:35:54;;;;;;;;;;;;;;;;;;6251817;22;19907;-87
2023/07/19 09:38:22;;;;;;;;;;;;;;;;;;6253328;22;19911;-87
2023/07/19 09:40:48;;;;;;;;;;;;;;;;;;6253966;22;19907;-87
2023/07/19 09:43:17;;;;;;;;;;;;;;;;;;6250986;22;19987;-87
2023/07/19 09:45:46;;;;;;;;;;;;;;;;;;6249083;23;20285;-87
2023/07/19 09:48:13;;;;;;;;;;;;;;;;;;6250501;22;20329;-87
2023/07/19 09:50:39;;;;;;;;;;;;;;;;;;6250189;22;19915;-87
2023/07/19 09:53:09;;;;;;;;;;;;;;;;;;6249961;22;19908;-86
2023/07/19 09:55:35;;;;;;;;;;;;;;;;;;6249416;22;19907;-89
2023/07/19 09:58:01;;;;;;;;;;;;;;;;;;6250812;22;19915;-96
2023/07/19 10:00:28;;;;;;;;;;;;;;;;;;6248624;23;19907;-90
2023/07/19 10:02:54;;;;;;;;;;;;;;;;;;6249650;22;19908;-94
2023/07/19 10:05:26;;;;;;;;;;;;;;;;;;6259366;22;19915;-95
2023/07/19 10:07:52;;;;;;;;;;;;;;;;;;6255003;23;19915;-94
2023/07/19 10:10:20;;;;;;;;;;;;;;;;;;6223945;23;20343;-93
2023/07/19 10:12:48;;;;;;;;;;;;;;;;;;6222096;23;20216;-92
2023/07/19 10:15:15;;;;;;;;;;;;;;;;;;6250083;23;19908;-93
2023/07/19 10:18:00;;;;;;;;;;;;;;;;;;6223067;23;19907;-86
2023/07/19 10:20:26;;;;;;;;;;;;;;;;;;6248431;23;19986;-91
2023/07/19 10:22:57;;;;;;;;;;;;;;;;;;6221977;23;19907;-90
2023/07/19 10:25:24;;;;;;;;;;;;;;;;;;6248612;23;19908;-89
2023/07/19 10:28:02;;;;;;;;;;;;;;;;;;6222035;23;19993;-87
2023/07/19 10:30:46;;;;;;;;;;;;;;;;;;6247849;23;19998;-87
2023/07/19 10:33:12;;;;;;;;;;;;;;;;;;6248742;23;20315;-86
2023/07/19 10:35:40;;;;;;;;;;;;;;;;;;6248751;23;19990;-88
2023/07/19 10:38:11;;;;;;;;;;;;;;;;;;6248544;23;19961;-86
2023/07/19 10:40:37;;;;;;;;;;;;;;;;;;6221557;23;19907;-87
2023/07/19 10:43:02;;;;;;;;;;;;;;;;;;6248869;23;20005;-86
2023/07/19 10:45:29;;;;;;;;;;;;;;;;;;6249052;23;19990;-92
2023/07/19 10:47:58;;;;;;;;;;;;;;;;;;6248752;23;20215;-89
2023/07/19 10:50:26;;;;;;;;;;;;;;;;;;6248443;23;19914;-89
2023/07/19 10:52:51;;;;;;;;;;;;;;;;;;6250686;23;19911;-90
2023/07/19 10:55:17;;;;;;;;;;;;;;;;;;6222346;23;20346;-89
2023/07/19 10:57:42;;;;;;;;;;;;;;;;;;6248752;23;19907;-90
2023/07/19 11:00:12;;;;;;;;;;;;;;;;;;6221706;23;19977;-89
2023/07/19 11:02:39;;;;;;;;;;;;;;;;;;6221982;23;20220;-89
2023/07/19 11:05:05;;;;;;;;;;;;;;;;;;6248172;22;19918;-89
2023/07/19 11:07:31;;;;;;;;;;;;;;;;;;6223502;23;19908;-90
2023/07/19 11:09:56;;;;;;;;;;;;;;;;;;6221293;23;19998;-88
2023/07/19 11:12:22;;;;;;;;;;;;;;;;;;6247971;23;19942;-89
2023/07/19 11:14:54;;;;;;;;;;;;;;;;;;6221510;23;19907;-89
2023/07/19 11:17:26;;;;;;;;;;;;;;;;;;6248220;23;19931;-88
2023/07/19 11:19:53;;;;;;;;;;;;;;;;;;6247972;23;19919;-88
2023/07/19 11:22:22;;;;;;;;;;;;;;;;;;6248179;23;19911;-88
2023/07/19 11:24:51;;;;;;;;;;;;;;;;;;6248327;23;20249;-90
2023/07/19 11:27:17;;;;;;;;;;;;;;;;;;6248434;23;20227;-89
2023/07/19 11:29:43;;;;;;;;;;;;;;;;;;6248367;23;19994;-92
2023/07/19 11:32:21;;;;;;;;;;;;;;;;;;6248230;23;19914;-91
2023/07/19 11:34:48;;;;;;;;;;;;;;;;;;6248034;23;19968;-90
2023/07/19 11:37:26;;;;;;;;;;;;;;;;;;6221536;23;19908;-91
2023/07/19 11:39:52;;;;;;;;;;;;;;;;;;6248120;23;19914;-90
2023/07/19 11:42:36;;;;;;;;;;;;;;;;;;6221880;23;19908;-91
2023/07/19 11:45:10;;;;;;;;;;;;;;;;;;6221247;23;20016;-91
2023/07/19 11:47:35;;;;;;;;;;;;;;;;;;6221279;23;19935;-90
2023/07/19 11:50:00;;;;;;;;;;;;;;;;;;6248234;23;19918;-91
2023/07/19 11:52:26;;;;;;;;;;;;;;;;;;6221419;23;19908;-91
2023/07/19 11:54:52;;;;;;;;;;;;;;;;;;6248441;23;19914;-91
2023/07/19 11:57:18;;;;;;;;;;;;;;;;;;6220875;23;19951;-92
2023/07/19 11:59:43;;;;;;;;;;;;;;;;;;6248460;23;19935;-89
2023/07/19 12:02:09;;;;;;;;;;;;;;;;;;6248186;23;20315;-91
2023/07/19 12:04:35;;;;;;;;;;;;;;;;;;6221002;23;19914;-90
2023/07/19 12:07:00;;;;;;;;;;;;;;;;;;6247805;22;19938;-91
2023/07/19 12:09:26;;;;;;;;;;;;;;;;;;6247680;23;20287;-91
2023/07/19 12:11:51;;;;;;;;;;;;;;;;;;6248799;23;19919;-91
2023/07/19 12:14:17;;;;;;;;;;;;;;;;;;6248498;23;19911;-92
2023/07/19 12:16:42;;;;;;;;;;;;;;;;;;6248505;23;19908;-91
2023/07/19 12:19:11;;;;;;;;;;;;;;;;;;6248329;23;20297;-92
2023/07/19 12:21:37;;;;;;;;;;;;;;;;;;6247879;23;19903;-90
2023/07/19 12:24:03;;;;;;;;;;;;;;;;;;6247855;23;19961;-91
2023/07/19 12:26:28;;;;;;;;;;;;;;;;;;6248007;23;20234;-90
2023/07/19 12:28:53;;;;;;;;;;;;;;;;;;6220961;23;19986;-91
2023/07/19 12:31:19;;;;;;;;;;;;;;;;;;6248168;23;19913;-92
2023/07/19 12:33:44;;;;;;;;;;;;;;;;;;6248240;23;19903;-91
2023/07/19 12:36:10;;;;;;;;;;;;;;;;;;6247858;23;20008;-91
2023/07/19 12:38:36;;;;;;;;;;;;;;;;;;6247587;23;19911;-91
2023/07/19 12:41:01;;;;;;;;;;;;;;;;;;6220824;23;19911;-91
2023/07/19 12:43:26;;;;;;;;;;;;;;;;;;6247520;23;19911;-92
2023/07/19 12:45:52;;;;;;;;;;;;;;;;;;6247477;23;19904;-91
2023/07/19 12:48:17;;;;;;;;;;;;;;;;;;6247802;23;20230;-91
2023/07/19 12:50:42;;;;;;;;;;;;;;;;;;6247339;23;19908;-91
2023/07/19 12:53:08;;;;;;;;;;;;;;;;;;6247181;23;19908;-91
2023/07/19 12:55:33;;;;;;;;;;;;;;;;;;6247230;23;19907;-92
2023/07/19 12:57:59;;;;;;;;;;;;;;;;;;6220578;23;19908;-91
2023/07/19 13:00:24;;;;;;;;;;;;;;;;;;6220445;23;19907;-92
2023/07/19 13:02:50;;;;;;;;;;;;;;;;;;6247418;23;20277;-92
2023/07/19 13:05:16;;;;;;;;;;;;;;;;;;6247020;22;20321;-91
2023/07/19 13:07:41;;;;;;;;;;;;;;;;;;6247489;23;19946;-92
2023/07/19 13:10:10;;;;;;;;;;;;;;;;;;6247391;23;20314;-92
2023/07/19 13:12:35;;;;;;;;;;;;;;;;;;6247804;23;19908;-92
2023/07/19 13:15:00;;;;;;;;;;;;;;;;;;6247267;23;19999;-91
2023/07/19 13:17:26;;;;;;;;;;;;;;;;;;6248300;23;19963;-90
2023/07/19 13:19:51;;;;;;;;;;;;;;;;;;6247518;23;19939;-91
2023/07/19 13:22:17;;;;;;;;;;;;;;;;;;6247246;23;20025;-92
2023/07/19 13:24:42;;;;;;;;;;;;;;;;;;6220491;23;19914;-90
2023/07/19 13:27:07;;;;;;;;;;;;;;;;;;6247211;23;19914;-91
2023/07/19 13:29:33;;;;;;;;;;;;;;;;;;6247765;23;20220;-91
2023/07/19 13:31:59;;;;;;;;;;;;;;;;;;6247403;23;19908;-90
2023/07/19 13:34:25;;;;;;;;;;;;;;;;;;6247535;23;19946;-90
2023/07/19 13:36:50;;;;;;;;;;;;;;;;;;6247484;23;20207;-91
2023/07/19 13:39:16;;;;;;;;;;;;;;;;;;6248031;23;19930;-91
2023/07/19 13:41:41;;;;;;;;;;;;;;;;;;6247047;23;19943;-91
2023/07/19 13:44:06;;;;;;;;;;;;;;;;;;6247884;23;19911;-92
2023/07/19 13:46:35;;;;;;;;;;;;;;;;;;6247216;23;19914;-91
2023/07/19 13:49:00;;;;;;;;;;;;;;;;;;6220719;23;20285;-91
2023/07/19 13:51:25;;;;;;;;;;;;;;;;;;6247335;23;19915;-91
2023/07/19 13:53:51;;;;;;;;;;;;;;;;;;6247324;23;19978;-91
2023/07/19 13:56:16;;;;;;;;;;;;;;;;;;6247937;23;19908;-91
2023/07/19 13:58:42;;;;;;;;;;;;;;;;;;6247867;23;19908;-91
2023/07/19 14:01:07;;;;;;;;;;;;;;;;;;6247619;23;19910;-91
2023/07/19 14:03:32;;;;;;;;;;;;;;;;;;6249986;23;19908;-92
2023/07/19 14:05:58;;;;;;;;;;;;;;;;;;6249619;22;19918;-91
2023/07/19 14:08:23;;;;;;;;;;;;;;;;;;6249246;23;20368;-91
2023/07/19 14:10:49;;;;;;;;;;;;;;;;;;6248847;23;19907;-91
2023/07/19 14:13:14;;;;;;;;;;;;;;;;;;6250744;23;20212;-91
2023/07/19 14:15:39;;;;;;;;;;;;;;;;;;6252832;23;19907;-93
2023/07/19 14:18:05;;;;;;;;;;;;;;;;;;6252888;23;20260;-91
2023/07/19 14:20:30;;;;;;;;;;;;;;;;;;6253830;23;19907;-90
2023/07/19 14:22:56;;;;;;;;;;;;;;;;;;6270189;23;19914;-91
2023/07/19 14:25:21;;;;;;;;;;;;;;;;;;6271303;23;19906;-91
2023/07/19 14:27:47;;;;;;;;;;;;;;;;;;6274802;22;19912;-91
2023/07/19 14:30:12;;;;;;;;;;;;;;;;;;6249267;23;19899;-89
2023/07/19 14:32:37;;;;;;;;;;;;;;;;;;6276120;23;19896;-89
2023/07/19 14:35:03;;;;;;;;;;;;;;;;;;6266055;23;19939;-91
2023/07/19 14:37:29;;;;;;;;;;;;;;;;;;6224659;23;19914;-91
2023/07/19 14:39:55;;;;;;;;;;;;;;;;;;6225361;23;19953;-93
2023/07/19 14:42:20;;;;;;;;;;;;;;;;;;6251051;23;19908;-92
2023/07/19 14:44:46;;;;;;;;;;;;;;;;;;6222680;23;19915;-92
2023/07/19 14:47:11;;;;;;;;;;;;;;;;;;6249210;23;19950;-91
2023/07/19 14:49:36;;;;;;;;;;;;;;;;;;6222210;23;19914;-91
2023/07/19 14:52:02;;;;;;;;;;;;;;;;;;6248615;23;19908;-92
2023/07/19 14:54:27;;;;;;;;;;;;;;;;;;6248435;23;19913;-92
2023/07/19 14:56:56;;;;;;;;;;;;;;;;;;6221599;23;19908;-90
2023/07/19 14:59:22;;;;;;;;;;;;;;;;;;6248445;23;19986;-91
2023/07/19 15:01:48;;;;;;;;;;;;;;;;;;6249415;23;19907;-91
2023/07/19 15:04:14;;;;;;;;;;;;;;;;;;6250590;23;19907;-91
2023/07/19 15:06:40;;;;;;;;;;;;;;;;;;6251726;22;19982;-91
2023/07/19 15:09:06;;;;;;;;;;;;;;;;;;6223906;23;19908;-91
2023/07/19 15:11:31;;;;;;;;;;;;;;;;;;6251182;23;19918;-92
2023/07/19 15:13:56;;;;;;;;;;;;;;;;;;6198684;23;19911;-92
2023/07/19 15:16:22;;;;;;;;;;;;;;;;;;6222902;23;19908;-92
2023/07/19 15:18:47;;;;;;;;;;;;;;;;;;6221808;23;19914;-92
2023/07/19 15:21:13;;;;;;;;;;;;;;;;;;6221779;23;19907;-93
2023/07/19 15:23:38;;;;;;;;;;;;;;;;;;6248328;23;20234;-92
2023/07/19 15:26:04;;;;;;;;;;;;;;;;;;6248024;23;19915;-92
2023/07/19 15:28:29;;;;;;;;;;;;;;;;;;6248187;23;19941;-92
2023/07/19 15:30:55;;;;;;;;;;;;;;;;;;6221291;23;19907;-92
2023/07/19 15:33:20;;;;;;;;;;;;;;;;;;6248325;23;19930;-93
2023/07/19 15:35:46;;;;;;;;;;;;;;;;;;6247800;23;20242;-92
2023/07/19 15:38:19;;;;;;;;;;;;;;;;;;6248028;23;19965;-91
2023/07/19 15:40:45;;;;;;;;;;;;;;;;;;6248152;23;19914;-92
2023/07/19 15:43:10;;;;;;;;;;;;;;;;;;6250181;23;19982;-91
2023/07/19 15:45:36;;;;;;;;;;;;;;;;;;6247923;23;19935;-92
2023/07/19 15:48:01;;;;;;;;;;;;;;;;;;6247859;23;19915;-91
2023/07/19 15:50:26;;;;;;;;;;;;;;;;;;6247682;23;19908;-92
2023/07/19 15:52:52;;;;;;;;;;;;;;;;;;6247916;23;20203;-92
2023/07/19 15:55:17;;;;;;;;;;;;;;;;;;6247932;23;19925;-92
2023/07/19 15:57:43;;;;;;;;;;;;;;;;;;6247892;23;19962;-93
2023/07/19 16:00:09;;;;;;;;;;;;;;;;;;6247893;23;20286;-92
2023/07/19 16:02:34;;;;;;;;;;;;;;;;;;6220911;23;19908;-92
2023/07/19 16:04:59;;;;;;;;;;;;;;;;;;6220423;22;19986;-92
2023/07/19 16:07:25;;;;;;;;;;;;;;;;;;6220928;23;19908;-93
2023/07/19 16:09:50;;;;;;;;;;;;;;;;;;6247668;23;19911;-92
2023/07/19 16:12:15;;;;;;;;;;;;;;;;;;6220780;23;19907;-93
2023/07/19 16:14:41;;;;;;;;;;;;;;;;;;6247391;23;19966;-91
2023/07/19 16:17:06;;;;;;;;;;;;;;;;;;6247555;23;19911;-93
2023/07/19 16:19:31;;;;;;;;;;;;;;;;;;6247435;23;19919;-93
2023/07/19 16:21:57;;;;;;;;;;;;;;;;;;6247583;23;20334;-92
2023/07/19 16:24:22;;;;;;;;;;;;;;;;;;6247303;23;19958;-92
2023/07/19 16:26:50;;;;;;;;;;;;;;;;;;6195816;23;19942;-90
2023/07/19 16:29:15;;;;;;;;;;;;;;;;;;6220354;23;19908;-92
2023/07/19 16:31:41;;;;;;;;;;;;;;;;;;6220805;23;19911;-92
2023/07/19 16:34:07;;;;;;;;;;;;;;;;;;6247676;23;19908;-92
2023/07/19 16:36:32;;;;;;;;;;;;;;;;;;6247624;23;19960;-92
2023/07/19 16:38:58;;;;;;;;;;;;;;;;;;6247617;23;19982;-91
2023/07/19 16:41:23;;;;;;;;;;;;;;;;;;6247620;23;19907;-93
2023/07/19 16:43:48;;;;;;;;;;;;;;;;;;6247649;23;19913;-94
2023/07/19 16:46:13;;;;;;;;;;;;;;;;;;6247524;23;19946;-91
2023/07/19 16:48:39;;;;;;;;;;;;;;;;;;6247333;23;19978;-89
2023/07/19 16:51:04;;;;;;;;;;;;;;;;;;6220754;23;19908;-96
2023/07/19 16:53:29;;;;;;;;;;;;;;;;;;6220324;23;19914;-89
2023/07/19 16:55:55;;;;;;;;;;;;;;;;;;6247635;23;19996;-89
2023/07/19 16:58:20;;;;;;;;;;;;;;;;;;6248297;23;19931;-90
2023/07/19 17:00:45;;;;;;;;;;;;;;;;;;6247660;23;19961;-90
2023/07/19 17:03:11;;;;;;;;;;;;;;;;;;6248331;23;19912;-90
2023/07/19 17:05:37;;;;;;;;;;;;;;;;;;6247166;22;19919;-90
2023/07/19 17:08:03;;;;;;;;;;;;;;;;;;6247023;23;19908;-89
2023/07/19 17:10:32;;;;;;;;;;;;;;;;;;6221087;23;20001;-89
2023/07/19 17:13:04;;;;;;;;;;;;;;;;;;6251672;23;19914;-89
2023/07/19 17:15:30;;;;;;;;;;;;;;;;;;6247380;23;19910;-89
2023/07/19 17:17:58;;;;;;;;;;;;;;;;;;6247169;23;20327;-89
2023/07/19 17:20:23;;;;;;;;;;;;;;;;;;6247361;23;19944;-89
2023/07/19 17:22:49;;;;;;;;;;;;;;;;;;6247467;23;20216;-92
2023/07/19 17:25:14;;;;;;;;;;;;;;;;;;6220451;23;20226;-90
2023/07/19 17:27:40;;;;;;;;;;;;;;;;;;6247753;23;19914;-90
2023/07/19 17:30:05;;;;;;;;;;;;;;;;;;6220286;23;20290;-88
2023/07/19 17:32:32;;;;;;;;;;;;;;;;;;6247324;23;19915;-86
2023/07/19 17:34:57;;;;;;;;;;;;;;;;;;6246951;23;19915;-88
2023/07/19 17:37:22;;;;;;;;;;;;;;;;;;6247395;23;20323;-87
2023/07/19 17:39:48;;;;;;;;;;;;;;;;;;6248269;23;19914;-86
2023/07/19 17:42:13;;;;;;;;;;;;;;;;;;6249856;23;19931;-88
2023/07/19 17:44:38;;;;;;;;;;;;;;;;;;6221770;23;19911;-88
2023/07/19 17:47:04;;;;;;;;;;;;;;;;;;6249165;23;19915;-88
2023/07/19 17:49:30;;;;;;;;;;;;;;;;;;6253052;23;19907;-86
2023/07/19 17:51:55;;;;;;;;;;;;;;;;;;6250001;23;19982;-86
2023/07/19 17:54:21;;;;;;;;;;;;;;;;;;6248670;23;19935;-90
2023/07/19 17:56:46;;;;;;;;;;;;;;;;;;6251018;23;19907;-89
2023/07/19 17:59:11;;;;;;;;;;;;;;;;;;6249337;23;19911;-87
2023/07/19 18:01:37;;;;;;;;;;;;;;;;;;6248929;23;19908;-85
2023/07/19 18:04:02;;;;;;;;;;;;;;;;;;6248914;23;19982;-85
2023/07/19 18:06:27;;;;;;;;;;;;;;;;;;6249324;22;19943;-87
2023/07/19 18:08:53;;;;;;;;;;;;;;;;;;6249788;23;19914;-86
2023/07/19 18:11:18;;;;;;;;;;;;;;;;;;6249797;23;19914;-87
2023/07/19 18:13:44;;;;;;;;;;;;;;;;;;6247394;23;19913;-85
2023/07/19 18:16:10;;;;;;;;;;;;;;;;;;6249298;23;19915;-86
2023/07/19 18:18:35;;;;;;;;;;;;;;;;;;6248927;23;19908;-85
2023/07/19 18:21:01;;;;;;;;;;;;;;;;;;6249468;23;19911;-85
2023/07/19 18:23:26;;;;;;;;;;;;;;;;;;6248730;23;20315;-85
2023/07/19 18:25:51;;;;;;;;;;;;;;;;;;6222275;23;19911;-86
2023/07/19 18:28:16;;;;;;;;;;;;;;;;;;6222046;23;20385;-85
2023/07/19 18:30:42;;;;;;;;;;;;;;;;;;6248251;23;19907;-86
2023/07/19 18:33:11;;;;;;;;;;;;;;;;;;6248502;23;19914;-85
2023/07/19 18:35:38;;;;;;;;;;;;;;;;;;6250859;23;20230;-85
2023/07/19 18:38:06;;;;;;;;;;;;;;;;;;6222010;23;19907;-85
2023/07/19 18:40:31;;;;;;;;;;;;;;;;;;6248260;23;20227;-85
2023/07/19 18:42:56;;;;;;;;;;;;;;;;;;6248366;23;19908;-84
2023/07/19 18:45:23;;;;;;;;;;;;;;;;;;6248286;23;19938;-85
2023/07/19 18:47:48;;;;;;;;;;;;;;;;;;6248362;23;19974;-85
2023/07/19 18:50:13;;;;;;;;;;;;;;;;;;6248039;23;19950;-85
2023/07/19 18:52:39;;;;;;;;;;;;;;;;;;6248395;23;19918;-82
2023/07/19 18:55:05;;;;;;;;;;;;;;;;;;6248561;23;19915;-88
2023/07/19 18:57:30;;;;;;;;;;;;;;;;;;6250413;23;19907;-87
2023/07/19 18:59:56;;;;;;;;;;;;;;;;;;6248398;23;20381;-86
2023/07/19 19:02:21;;;;;;;;;;;;;;;;;;6253254;23;19912;-85
2023/07/19 19:04:46;;;;;;;;;;;;;;;;;;6248092;22;19907;-84
2023/07/19 19:07:12;;;;;;;;;;;;;;;;;;6222075;23;19912;-85
2023/07/19 19:09:37;;;;;;;;;;;;;;;;;;6249062;23;19907;-86
2023/07/19 19:12:02;;;;;;;;;;;;;;;;;;6248403;23;19907;-85
2023/07/19 19:14:28;;;;;;;;;;;;;;;;;;6248013;23;19908;-86
2023/07/19 19:16:55;;;;;;;;;;;;;;;;;;6221445;23;20341;-87
2023/07/19 19:19:20;;;;;;;;;;;;;;;;;;6248398;23;19907;-86
2023/07/19 19:21:45;;;;;;;;;;;;;;;;;;6248122;23;19911;-85
2023/07/19 19:24:10;;;;;;;;;;;;;;;;;;6248289;23;19914;-83
2023/07/19 19:26:36;;;;;;;;;;;;;;;;;;6248592;23;19978;-84
2023/07/19 19:29:02;;;;;;;;;;;;;;;;;;6248724;23;19912;-83
2023/07/19 19:31:27;;;;;;;;;;;;;;;;;;6248589;23;19948;-86
2023/07/19 19:33:52;;;;;;;;;;;;;;;;;;6249173;23;19930;-83
2023/07/19 19:36:18;;;;;;;;;;;;;;;;;;6248106;23;19965;-85
2023/07/19 19:38:43;;;;;;;;;;;;;;;;;;6248988;23;19953;-84
2023/07/19 19:41:08;;;;;;;;;;;;;;;;;;6249952;23;20334;-85
2023/07/19 19:43:37;;;;;;;;;;;;;;;;;;6248334;23;19907;-85
2023/07/19 19:46:03;;;;;;;;;;;;;;;;;;6251160;23;19961;-87
2023/07/19 19:48:28;;;;;;;;;;;;;;;;;;6221148;23;19990;-87
2023/07/19 19:50:53;;;;;;;;;;;;;;;;;;6247451;23;19919;-83
2023/07/19 19:53:19;;;;;;;;;;;;;;;;;;6248172;23;19908;-86
2023/07/19 19:55:46;;;;;;;;;;;;;;;;;;6247859;23;20346;-84
2023/07/19 19:58:11;;;;;;;;;;;;;;;;;;6220894;23;19908;-87
2023/07/19 20:00:36;;;;;;;;;;;;;;;;;;6247478;23;20026;-84
2023/07/19 20:03:03;;;;;;;;;;;;;;;;;;6220656;23;19950;-85
2023/07/19 20:05:28;;;;;;;;;;;;;;;;;;6247334;22;19911;-86
2023/07/19 20:07:53;;;;;;;;;;;;;;;;;;6247664;23;19907;-84
2023/07/19 20:10:19;;;;;;;;;;;;;;;;;;6247326;23;19914;-87
2023/07/19 20:12:44;;;;;;;;;;;;;;;;;;6247914;23;19962;-86
2023/07/19 20:15:10;;;;;;;;;;;;;;;;;;6247394;23;20319;-87
2023/07/19 20:17:35;;;;;;;;;;;;;;;;;;6247458;23;19962;-84
2023/07/19 20:20:03;;;;;;;;;;;;;;;;;;6247409;23;19914;-87
2023/07/19 20:22:28;;;;;;;;;;;;;;;;;;6247744;23;19931;-87
2023/07/19 20:24:54;;;;;;;;;;;;;;;;;;6247588;23;19954;-86
2023/07/19 20:27:19;;;;;;;;;;;;;;;;;;6247246;23;19911;-87
2023/07/19 20:29:45;;;;;;;;;;;;;;;;;;6247661;23;19986;-86
2023/07/19 20:32:10;;;;;;;;;;;;;;;;;;6247663;23;20369;-84
2023/07/19 20:34:35;;;;;;;;;;;;;;;;;;6247030;23;20230;-87
2023/07/19 20:37:01;;;;;;;;;;;;;;;;;;6247458;23;19907;-84
2023/07/19 20:39:26;;;;;;;;;;;;;;;;;;6247541;23;19947;-87
2023/07/19 20:41:51;;;;;;;;;;;;;;;;;;6247205;23;20242;-87
2023/07/19 20:44:17;;;;;;;;;;;;;;;;;;6220390;23;19908;-84
2023/07/19 20:46:43;;;;;;;;;;;;;;;;;;6247131;23;20311;-84
2023/07/19 20:49:11;;;;;;;;;;;;;;;;;;6246995;23;19994;-84
2023/07/19 20:51:37;;;;;;;;;;;;;;;;;;6247054;23;19911;-84
2023/07/19 20:54:05;;;;;;;;;;;;;;;;;;6247052;23;19960;-86
2023/07/19 20:56:30;;;;;;;;;;;;;;;;;;6247513;23;19908;-85
2023/07/19 20:58:55;;;;;;;;;;;;;;;;;;6247477;23;19982;-87
2023/07/19 21:01:21;;;;;;;;;;;;;;;;;;6247155;23;19907;-83
2023/07/19 21:03:46;;;;;;;;;;;;;;;;;;6247061;23;19907;-87
2023/07/19 21:06:11;;;;;;;;;;;;;;;;;;6247181;22;19922;-84
2023/07/19 21:08:37;;;;;;;;;;;;;;;;;;6247356;23;19907;-83
2023/07/19 21:11:02;;;;;;;;;;;;;;;;;;6247026;23;19990;-85
2023/07/19 21:13:27;;;;;;;;;;;;;;;;;;6246768;23;19907;-85
2023/07/19 21:15:53;;;;;;;;;;;;;;;;;;6220027;23;19914;-84
2023/07/19 21:18:18;;;;;;;;;;;;;;;;;;6246978;23;19915;-84
2023/07/19 21:20:43;;;;;;;;;;;;;;;;;;6246913;23;19914;-84
2023/07/19 21:23:09;;;;;;;;;;;;;;;;;;6247386;23;20349;-88
2023/07/19 21:25:34;;;;;;;;;;;;;;;;;;6247071;23;20262;-85
2023/07/19 21:27:59;;;;;;;;;;;;;;;;;;6247020;23;19907;-87
2023/07/19 21:30:25;;;;;;;;;;;;;;;;;;6246891;23;19907;-84
2023/07/19 21:32:50;;;;;;;;;;;;;;;;;;6246732;23;19912;-84
2023/07/19 21:35:15;;;;;;;;;;;;;;;;;;6247262;23;19954;-84
2023/07/19 21:37:41;;;;;;;;;;;;;;;;;;6250010;23;19930;-86
2023/07/19 21:40:06;;;;;;;;;;;;;;;;;;6254261;23;19914;-85
2023/07/19 21:42:32;;;;;;;;;;;;;;;;;;6252581;23;19915;-84
2023/07/19 21:44:57;;;;;;;;;;;;;;;;;;6253499;23;19930;-84
2023/07/19 21:47:23;;;;;;;;;;;;;;;;;;6248054;23;19907;-84
2023/07/19 21:49:48;;;;;;;;;;;;;;;;;;6257527;23;19914;-85
2023/07/19 21:52:13;;;;;;;;;;;;;;;;;;6257500;23;19937;-84
2023/07/19 21:54:39;;;;;;;;;;;;;;;;;;6259338;23;19914;-85
2023/07/19 21:57:04;;;;;;;;;;;;;;;;;;6230872;23;19915;-88
